Airfield :
LOGIN :

Register | Disclaimer

   EN    FR    IT 

 










Legend :    VFR   Marginal VFR   IFR   Intensive IFR   Very Intensive IFR
Visi :
Ceiling :
>= 8 km
>= 3000ft
5 to 8 km
1000 to 3000 ft
1500m to 5 km
500 to 1000 ft
800 to 1500m
200 to 500 ft
< 800m
< 200 ft
Symbols :   Thunderstorms  Fog  Heavy snow  Heavy precipitations  Wind > 20 kt
SIGMETs :     Misc.  Thunderstorms  Icing  Turbulence  Mountain Waves  Volcanic Ashes






- Airport Elevation : 255 ft


ENGC - Gullfaks C oil platform

CURRENT METAR :
  • 091950Z 36018KT 9999 FEW040 03/M05 Q1009 W05/S6

EXPIRED METARs :
  • 091850Z 34023KT 9999 -SHRA FEW025 BKN045 04/M03 Q1008 W06/S6
  • 091820Z 36027KT 9999 -RA FEW030 SCT050 03/M03 Q1007 W06/S6
  • 091750Z 36030KT 9999 FEW040 03/M04 Q1007 W///S/
  • 091720Z 36029KT 9999 FEW040 04/M05 Q1006 W///S/

TAF ENGC
Valid from the 09 at 18:00 until the 10 at 18:00 UTC


0918/1018 35030KT 9999 BKN030
BECMG 0918/0920 35020KT
BECMG 0922/0924 25008KT
BECMG 1001/1003 19020KT
BECMG 1003/1006 18035KT
BECMG 1006/1009 17050G60KT
BECMG 1009/1012 17062G75KT
BECMG 1012/1015 4000 RADZ BR OVC012
TEMPO 1015/1018 2500 RADZ BR BKN007



MET'MAP, your aeronautical weather chart ! - Copyright ORBIFLY December 2007 - Disclaimer

ORBIFLY MET'MAP TEAM :

Programming & Development : Alexandra Zaïnal
Concept & original design : Baudouin d'Aumeries
Assistance for programming : Marc-Olivier Méhu
Technical & hardware support : Manuel Goepfert

Contact : metmap@orbifly.com




SOURCES & CREDITS :

   NOAA